createdAt,value
2023-03-04T00:00:07.456Z,619.65
2023-03-04T00:02:34.266Z,620.97
2023-03-04T00:05:00.948Z,618.90
2023-03-04T00:07:27.659Z,617.53
2023-03-04T00:09:54.358Z,612.00
2023-03-04T00:12:21.266Z,620.47
2023-03-04T00:14:47.965Z,615.80
2023-03-04T00:17:14.701Z,616.28
2023-03-04T00:19:41.329Z,615.95
2023-03-04T00:22:07.967Z,613.43
2023-03-04T00:24:35.182Z,615.00
2023-03-04T00:27:01.919Z,613.33
2023-03-04T00:29:28.637Z,611.00
2023-03-04T05:31:58.499Z,490.33
2023-03-04T05:34:25.155Z,497.35
2023-03-04T05:36:51.866Z,482.45
2023-03-04T05:39:18.565Z,484.33
2023-03-04T05:41:45.238Z,484.67
2023-03-04T05:44:11.842Z,475.92
2023-03-04T05:46:38.467Z,480.57
2023-03-04T05:49:05.363Z,481.65
2023-03-04T05:51:32.015Z,482.17
2023-03-04T05:53:58.659Z,485.50
2023-03-04T05:56:25.306Z,475.48
2023-03-04T05:58:51.899Z,470.42
2023-03-04T06:01:18.539Z,481.67
2023-03-04T06:03:45.292Z,472.55
2023-03-04T06:06:12.051Z,474.10
2023-03-04T06:08:38.672Z,471.70
2023-03-04T06:11:05.854Z,478.92
2023-03-04T06:13:33.025Z,472.80
2023-03-04T06:16:00.385Z,480.13
2023-03-04T06:18:28.038Z,475.13
2023-03-04T06:20:59.176Z,468.83
2023-03-04T06:23:26.641Z,465.30
2023-03-04T06:25:58.355Z,476.33
2023-03-04T06:28:25.316Z,468.65
2023-03-04T06:30:53.164Z,470.63
2023-03-04T06:33:20.439Z,478.30
2023-03-04T06:35:47.332Z,469.40
2023-03-04T06:38:14.379Z,479.30
2023-03-04T06:40:40.990Z,477.77
2023-03-04T06:43:07.637Z,481.07
2023-03-04T06:45:34.221Z,483.83
2023-03-04T06:48:00.902Z,492.73
2023-03-04T06:50:27.523Z,486.38
2023-03-04T06:52:57.017Z,492.27
2023-03-04T06:55:24.220Z,490.98
2023-03-04T06:57:51.397Z,496.50
2023-03-04T07:00:19.346Z,494.95
2023-03-04T07:02:46.014Z,507.40
2023-03-04T07:05:12.672Z,501.83
2023-03-04T07:07:39.255Z,504.70
2023-03-04T07:10:06.789Z,513.50
2023-03-04T07:12:33.525Z,517.33
2023-03-04T07:15:00.230Z,523.42
2023-03-04T07:17:26.865Z,526.08
2023-03-04T07:19:53.649Z,517.97
2023-03-04T07:22:20.280Z,531.25
2023-03-04T07:24:46.899Z,535.20
2023-03-04T07:27:13.611Z,530.25
2023-03-04T07:29:40.229Z,539.47
2023-03-04T07:32:10.590Z,537.97
2023-03-04T07:34:37.359Z,539.73
2023-03-04T07:37:04.419Z,552.97
2023-03-04T07:39:31.173Z,553.15
2023-03-04T07:41:57.780Z,561.78
2023-03-04T07:44:24.524Z,563.70
2023-03-04T07:46:51.114Z,582.53
2023-03-04T07:49:17.749Z,611.85
2023-03-04T07:51:44.578Z,649.80
2023-03-04T07:54:11.633Z,660.15
2023-03-04T07:56:38.276Z,684.25
2023-03-04T07:59:04.902Z,733.25
2023-03-04T08:01:34.364Z,760.97
2023-03-04T08:04:01.684Z,780.83
2023-03-04T08:06:29.296Z,799.80
2023-03-04T08:09:06.698Z,824.17
2023-03-04T08:11:34.427Z,846.60
2023-03-04T08:14:01.045Z,859.93
2023-03-04T08:16:28.146Z,880.30
2023-03-04T08:18:57.989Z,879.10
2023-03-04T08:21:26.952Z,885.60
2023-03-04T08:23:54.449Z,880.78
2023-03-04T08:26:30.665Z,885.70
2023-03-04T08:28:57.854Z,892.92
2023-03-04T08:31:24.819Z,899.85
2023-03-04T08:33:52.782Z,908.55
2023-03-04T08:36:19.858Z,903.55
2023-03-04T08:38:46.676Z,910.70
2023-03-04T08:41:13.428Z,932.43
2023-03-04T08:43:40.325Z,938.60
2023-03-04T08:46:07.550Z,943.28
2023-03-04T08:48:34.335Z,958.03
2023-03-04T08:51:01.074Z,979.78
2023-03-04T08:53:27.746Z,986.22
2023-03-04T08:55:54.427Z,999.90
2023-03-04T08:58:21.053Z,999.90
2023-03-04T09:00:51.318Z,999.90
2023-03-04T09:03:19.946Z,999.90
2023-03-04T09:05:47.938Z,999.90
2023-03-04T09:08:16.012Z,999.90
2023-03-04T09:10:43.315Z,999.90
2023-03-04T09:13:16.126Z,999.90
2023-03-04T09:15:47.690Z,999.90
2023-03-04T09:18:15.168Z,999.90
2023-03-04T09:20:42.060Z,999.90
2023-03-04T09:23:09.629Z,999.90
2023-03-04T09:25:37.826Z,999.90
2023-03-04T09:28:05.074Z,999.90
2023-03-04T09:30:32.279Z,999.90
2023-03-04T09:32:58.878Z,999.90
2023-03-04T09:35:25.806Z,999.90
2023-03-04T09:37:52.960Z,999.90
2023-03-04T09:40:28.223Z,999.90
2023-03-04T09:43:06.013Z,999.90
2023-03-04T09:45:40.863Z,999.90
2023-03-04T09:48:11.267Z,999.90
2023-03-04T09:50:46.816Z,999.90
2023-03-04T09:53:22.914Z,999.90
2023-03-04T09:55:52.062Z,999.90
2023-03-04T09:58:27.593Z,999.90
2023-03-04T10:01:23.380Z,999.90
2023-03-04T10:03:59.218Z,999.90
2023-03-04T10:06:37.107Z,999.90
2023-03-04T10:09:11.827Z,999.90
2023-03-04T10:11:55.528Z,999.90
2023-03-04T10:14:22.188Z,999.90
2023-03-04T10:16:51.603Z,999.90
2023-03-04T10:19:25.718Z,999.90
2023-03-04T10:21:52.649Z,999.90
2023-03-04T10:24:22.558Z,999.90
2023-03-04T10:26:54.397Z,999.90
2023-03-04T10:29:24.359Z,999.90
2023-03-04T10:31:51.562Z,999.90
2023-03-04T10:34:18.513Z,999.90
2023-03-04T10:36:52.319Z,999.90
2023-03-04T10:39:24.576Z,999.90
2023-03-04T10:41:58.157Z,999.90
2023-03-04T10:44:25.511Z,999.90
2023-03-04T10:46:55.286Z,999.90
2023-03-04T10:49:24.794Z,999.90
2023-03-04T10:52:35.372Z,999.90
2023-03-04T10:55:15.442Z,999.90
2023-03-04T10:57:44.534Z,999.90
2023-03-04T11:00:28.492Z,999.90
2023-03-04T11:03:20.898Z,999.90
2023-03-04T11:05:47.662Z,999.90
2023-03-04T11:08:19.710Z,999.90
2023-03-04T11:10:47.275Z,999.90
2023-03-04T11:13:18.914Z,999.90
2023-03-04T11:15:53.511Z,999.90
2023-03-04T11:18:41.319Z,999.90
2023-03-04T11:21:12.767Z,999.90
2023-03-04T11:23:52.157Z,999.90
2023-03-04T11:26:25.806Z,999.90
2023-03-04T11:28:54.292Z,999.90
2023-03-04T11:31:27.274Z,999.90
2023-03-04T11:34:23.089Z,999.90
2023-03-04T11:37:05.395Z,999.90
2023-03-04T11:39:34.830Z,999.90
2023-03-04T11:42:53.798Z,999.90
2023-03-04T11:45:33.962Z,999.90
2023-03-04T11:48:15.016Z,999.90
2023-03-04T11:51:07.286Z,999.90
2023-03-04T11:53:37.330Z,999.90
2023-03-04T11:56:13.114Z,999.90
2023-03-04T11:59:01.510Z,999.90
2023-03-04T12:01:31.642Z,999.90
2023-03-04T12:04:17.801Z,999.90
2023-03-04T12:07:06.577Z,999.90
2023-03-04T12:09:45.236Z,999.90
2023-03-04T12:12:45.907Z,999.90
2023-03-04T12:15:38.104Z,999.90
2023-03-04T12:18:32.655Z,999.85
2023-03-04T12:21:17.086Z,999.90
2023-03-04T12:23:55.496Z,999.90
2023-03-04T12:26:30.316Z,999.90
2023-03-04T12:29:20.232Z,999.90
2023-03-04T12:31:50.304Z,999.90
2023-03-04T12:34:27.685Z,999.90
2023-03-04T12:37:22.167Z,999.90
2023-03-04T12:39:54.724Z,999.90
2023-03-04T12:42:43.099Z,999.90
2023-03-04T12:45:32.829Z,999.90
2023-03-04T12:48:07.548Z,999.90
2023-03-04T12:50:53.344Z,999.90
2023-03-04T12:53:37.840Z,995.63
2023-03-04T12:56:07.982Z,983.85
2023-03-04T12:58:36.926Z,967.65
2023-03-04T13:01:24.783Z,939.20
2023-03-04T13:03:57.216Z,937.58
2023-03-04T13:06:30.007Z,933.67
2023-03-04T13:09:25.473Z,934.58
2023-03-04T13:12:17.293Z,928.67
2023-03-04T13:15:05.824Z,923.00
2023-03-04T13:17:38.621Z,936.83
2023-03-04T13:20:39.725Z,939.00
2023-03-04T13:23:09.098Z,960.70
2023-03-04T13:25:40.380Z,961.55
2023-03-04T13:28:10.035Z,967.53
2023-03-04T13:30:38.133Z,965.50
2023-03-04T13:33:16.488Z,950.47
2023-03-04T13:35:49.021Z,947.88
2023-03-04T13:38:31.513Z,951.25
2023-03-04T13:41:14.024Z,952.78
2023-03-04T13:43:47.869Z,951.95
2023-03-04T13:46:20.589Z,948.25
2023-03-04T13:49:02.298Z,934.42
2023-03-04T13:51:45.091Z,940.55
2023-03-04T13:54:27.509Z,939.95
2023-03-04T13:57:00.333Z,927.25
2023-03-04T13:59:42.139Z,926.22
2023-03-04T14:02:22.426Z,920.00
2023-03-04T14:04:54.899Z,915.17
2023-03-04T14:07:24.783Z,923.95
2023-03-04T14:09:58.024Z,915.83
2023-03-04T14:12:26.342Z,914.10
2023-03-04T14:14:56.121Z,918.72
2023-03-04T14:17:32.501Z,909.80
2023-03-04T14:20:00.554Z,917.27
2023-03-04T14:22:33.960Z,917.03
2023-03-04T14:25:03.469Z,910.42
2023-03-04T14:27:35.227Z,905.43
2023-03-04T14:30:07.938Z,908.50
2023-03-04T14:32:35.036Z,906.63
2023-03-04T14:35:17.869Z,911.63
2023-03-04T14:37:49.980Z,907.55
2023-03-04T14:40:26.981Z,905.78
2023-03-04T14:43:05.462Z,909.30
2023-03-04T14:45:32.138Z,916.40
2023-03-04T14:48:06.685Z,926.97
2023-03-04T14:50:35.701Z,921.75
2023-03-04T14:53:09.205Z,921.45
2023-03-04T14:55:35.984Z,918.05
2023-03-04T14:58:18.505Z,933.20
2023-03-04T15:00:45.521Z,921.47
2023-03-04T15:03:22.020Z,918.85
2023-03-04T15:05:49.126Z,909.15
2023-03-04T15:08:20.701Z,905.03
2023-03-04T15:10:56.792Z,897.03
2023-03-04T15:13:44.500Z,894.60
2023-03-04T15:16:13.697Z,891.38
2023-03-04T15:19:05.726Z,881.00
2023-03-04T15:21:36.880Z,879.28
2023-03-04T15:24:06.026Z,880.67
2023-03-04T15:26:34.492Z,875.00
2023-03-04T15:29:03.530Z,884.20
2023-03-04T15:31:30.215Z,883.90
2023-03-04T15:33:56.890Z,887.60
2023-03-04T15:36:23.977Z,879.05
2023-03-04T15:38:52.952Z,881.72
2023-03-04T15:41:24.100Z,880.55
2023-03-04T15:43:51.954Z,867.40
2023-03-04T15:46:18.765Z,877.83
2023-03-04T15:48:45.964Z,879.65
2023-03-04T15:51:19.745Z,867.88
2023-03-04T15:53:49.633Z,866.42
2023-03-04T15:56:25.043Z,871.72
2023-03-04T15:59:02.399Z,843.20
2023-03-04T16:01:30.515Z,837.38
2023-03-04T16:03:57.132Z,834.90
2023-03-04T16:06:27.132Z,821.70
2023-03-04T16:08:53.823Z,819.40
2023-03-04T16:11:23.107Z,822.50
2023-03-04T16:13:50.153Z,813.88
2023-03-04T16:16:17.294Z,806.90
2023-03-04T16:18:44.970Z,805.28
2023-03-04T16:21:18.759Z,802.47
2023-03-04T16:23:48.433Z,796.55
2023-03-04T16:26:20.737Z,797.95
2023-03-04T16:28:47.425Z,803.72
2023-03-04T16:31:15.950Z,799.03
2023-03-04T16:33:42.997Z,813.25
2023-03-04T16:36:24.348Z,812.15
2023-03-04T16:38:52.449Z,803.73
2023-03-04T16:41:23.993Z,797.88
2023-03-04T16:43:50.640Z,810.53
2023-03-04T16:46:17.275Z,803.67
2023-03-04T16:48:43.907Z,805.97
2023-03-04T16:51:19.503Z,810.25
2023-03-04T16:53:52.946Z,809.65
2023-03-04T16:56:20.432Z,808.03
2023-03-04T16:58:47.318Z,803.65
2023-03-04T17:01:19.716Z,808.10
2023-03-04T17:03:46.839Z,802.97
2023-03-04T17:06:14.121Z,808.88
2023-03-04T17:08:41.651Z,807.38
2023-03-04T17:11:12.696Z,796.08
2023-03-04T17:13:39.356Z,795.70
2023-03-04T17:16:06.325Z,790.72
2023-03-04T17:18:33.175Z,789.80
2023-03-04T17:21:08.632Z,784.38
2023-03-04T17:23:35.310Z,777.05
2023-03-04T17:26:02.416Z,776.78
2023-03-04T17:28:29.404Z,788.72
2023-03-04T17:30:56.097Z,771.85
2023-03-04T17:33:23.206Z,770.60
2023-03-04T17:35:50.035Z,772.83
2023-03-04T17:38:17.349Z,761.93
2023-03-04T17:40:44.918Z,768.78
2023-03-04T17:43:11.598Z,752.40
2023-03-04T17:45:39.493Z,738.47
2023-03-04T17:48:06.864Z,738.20
2023-03-04T17:50:34.546Z,736.97
2023-03-04T17:53:01.183Z,728.38
2023-03-04T17:55:27.923Z,720.58
2023-03-04T17:57:57.345Z,718.30
2023-03-04T18:00:24.215Z,716.47
2023-03-04T18:02:50.821Z,709.63
2023-03-04T18:05:17.457Z,712.10
2023-03-04T18:07:44.100Z,708.55
2023-03-04T18:10:11.222Z,701.17
2023-03-04T18:12:37.869Z,693.00
2023-03-04T18:15:04.936Z,696.00
2023-03-04T18:17:31.619Z,701.80
2023-03-04T18:19:58.344Z,686.38
2023-03-04T18:22:24.992Z,685.40
2023-03-04T18:24:51.724Z,686.17
2023-03-04T18:27:18.486Z,686.22
2023-03-04T18:29:45.095Z,676.40
2023-03-04T18:32:11.885Z,672.78
2023-03-04T18:34:38.610Z,666.75
2023-03-04T18:37:05.256Z,665.95
2023-03-04T18:39:31.883Z,673.97
2023-03-04T18:41:59.129Z,671.90
2023-03-04T18:44:25.784Z,667.97
2023-03-04T18:46:56.155Z,666.15
2023-03-04T18:49:23.639Z,665.85
2023-03-04T18:51:50.273Z,665.75
2023-03-04T18:54:17.012Z,665.53
2023-03-04T18:56:48.402Z,658.42
2023-03-04T18:59:26.295Z,656.10
2023-03-04T19:01:54.319Z,658.90
2023-03-04T19:04:23.038Z,653.35
2023-03-04T19:06:49.914Z,660.35
2023-03-04T19:09:16.624Z,654.28
2023-03-04T19:11:43.295Z,656.20
2023-03-04T19:14:11.628Z,659.55
2023-03-04T19:16:40.551Z,652.20
2023-03-04T19:19:07.636Z,651.75
2023-03-04T19:21:38.176Z,654.42
2023-03-04T19:24:05.476Z,648.60
2023-03-04T19:26:32.425Z,644.60
2023-03-04T19:28:59.057Z,647.03
2023-03-04T19:31:25.800Z,650.03
2023-03-04T19:33:52.553Z,643.45
2023-03-04T19:36:19.186Z,644.20
2023-03-04T19:38:45.933Z,631.95
2023-03-04T19:41:15.031Z,638.72
2023-03-04T19:43:42.029Z,633.42
2023-03-04T19:46:10.020Z,626.80
2023-03-04T19:48:37.124Z,616.78
2023-03-04T19:51:05.043Z,625.97
2023-03-04T19:53:34.581Z,626.28
2023-03-04T19:56:01.534Z,621.25
2023-03-04T19:58:28.244Z,617.90
2023-03-04T20:00:56.086Z,616.33
2023-03-04T20:03:23.964Z,611.92
2023-03-04T20:05:50.685Z,613.17
2023-03-04T20:08:17.319Z,597.85
2023-03-04T20:10:44.029Z,603.45
2023-03-04T20:13:10.716Z,609.42
2023-03-04T20:15:41.585Z,603.60
2023-03-04T20:18:08.202Z,604.05
2023-03-04T20:20:38.322Z,604.40
2023-03-04T20:23:05.816Z,596.60
2023-03-04T20:25:32.726Z,603.22
2023-03-04T20:27:59.503Z,604.67
2023-03-04T20:30:26.148Z,603.72
2023-03-04T20:32:52.771Z,598.07
2023-03-04T20:35:19.970Z,594.38
2023-03-04T20:37:46.586Z,591.22
2023-03-04T20:40:13.699Z,583.35
2023-03-04T20:42:40.414Z,590.72
2023-03-04T20:45:07.836Z,578.05
2023-03-04T20:47:34.445Z,590.38
2023-03-04T20:50:01.239Z,577.53
2023-03-04T20:52:27.916Z,565.10
2023-03-04T20:54:54.511Z,568.92
2023-03-04T20:57:21.429Z,573.17
2023-03-04T20:59:48.583Z,561.20
2023-03-04T21:02:17.173Z,563.60
2023-03-04T21:04:43.979Z,562.67
2023-03-04T21:07:11.602Z,563.67
2023-03-04T21:09:38.274Z,566.20
2023-03-04T21:12:05.219Z,565.83
2023-03-04T21:14:32.808Z,562.58
2023-03-04T21:17:02.229Z,562.03
2023-03-04T21:19:31.743Z,553.83
2023-03-04T21:22:00.050Z,562.77
2023-03-04T21:24:30.466Z,554.47
2023-03-04T21:26:57.992Z,552.75
2023-03-04T21:29:26.910Z,550.42
2023-03-04T21:31:56.314Z,552.05
2023-03-04T21:34:28.413Z,552.20
2023-03-04T21:36:55.074Z,547.95
2023-03-04T21:39:24.296Z,543.63
2023-03-04T21:41:51.843Z,544.65
2023-03-04T21:44:28.437Z,550.10
2023-03-04T21:46:56.948Z,557.37
2023-03-04T21:49:23.744Z,548.35
2023-03-04T21:51:50.441Z,546.75
2023-03-04T21:54:17.104Z,558.78
2023-03-04T21:56:43.842Z,548.33
2023-03-04T21:59:13.528Z,547.50
2023-03-04T22:01:41.293Z,546.90
2023-03-04T22:04:08.356Z,553.38
2023-03-04T22:06:34.997Z,541.13
2023-03-04T22:09:03.545Z,543.60
2023-03-04T22:11:30.958Z,542.35
2023-03-04T22:14:00.914Z,553.53
2023-03-04T22:16:28.729Z,540.78
2023-03-04T22:18:55.642Z,540.58
2023-03-04T22:21:22.380Z,545.40
2023-03-04T22:23:49.052Z,538.55
2023-03-04T22:26:18.405Z,539.47
2023-03-04T22:28:45.913Z,533.20
2023-03-04T22:31:21.586Z,543.67
2023-03-04T22:33:48.224Z,535.20
2023-03-04T22:36:14.929Z,533.28
2023-03-04T22:38:42.134Z,537.67
2023-03-04T22:41:17.010Z,533.53
2023-03-04T22:43:44.267Z,532.38
2023-03-04T22:46:16.907Z,532.90
2023-03-04T22:48:43.667Z,532.05
2023-03-04T22:51:10.610Z,534.47
2023-03-04T22:53:37.851Z,531.75
2023-03-04T22:56:05.922Z,542.58
2023-03-04T22:58:32.863Z,529.17
2023-03-04T23:00:59.876Z,529.10
2023-03-04T23:03:26.602Z,531.75
2023-03-04T23:06:08.645Z,524.57
2023-03-04T23:08:37.172Z,534.05
2023-03-04T23:11:08.926Z,521.22
2023-03-04T23:13:36.298Z,521.88
2023-03-04T23:16:06.158Z,526.28
2023-03-04T23:18:32.782Z,521.00
2023-03-04T23:20:59.404Z,520.83
2023-03-04T23:23:26.190Z,515.63
2023-03-04T23:25:52.943Z,515.45
2023-03-04T23:28:19.702Z,512.20
2023-03-04T23:30:46.336Z,519.03
2023-03-04T23:33:13.007Z,517.55
2023-03-04T23:35:39.687Z,523.58
2023-03-04T23:38:06.363Z,511.50
2023-03-04T23:40:33.024Z,503.83
2023-03-04T23:42:59.665Z,521.22
2023-03-04T23:45:26.383Z,523.03
2023-03-04T23:47:53.068Z,524.17
2023-03-04T23:50:19.986Z,517.00
2023-03-04T23:52:46.816Z,528.23
2023-03-04T23:55:16.652Z,528.50
2023-03-04T23:57:43.983Z,527.38
